createdAt,value
2019-03-06T00:00:24.978Z,62.84
2019-03-06T00:02:53.492Z,62.69
2019-03-06T00:05:22.107Z,62.79
2019-03-06T00:07:50.714Z,62.92
2019-03-06T00:10:30.485Z,62.66
2019-03-06T00:12:59.203Z,62.51
2019-03-06T00:15:27.790Z,62.35
2019-03-06T00:17:56.377Z,62.84
2019-03-06T00:20:24.979Z,62.77
2019-03-06T00:22:53.649Z,63.03
2019-03-06T00:25:22.279Z,62.65
2019-03-06T00:27:50.799Z,62.95
2019-03-06T00:30:20.285Z,63.03
2019-03-06T00:32:48.943Z,63.26
2019-03-06T00:35:19.157Z,63.74
2019-03-06T00:37:47.708Z,63.18
2019-03-06T00:40:17.931Z,63.49
2019-03-06T00:42:48.051Z,63.98
2019-03-06T00:45:16.651Z,64.61
2019-03-06T00:47:45.213Z,65.42
2019-03-06T00:50:14.085Z,65.32
2019-03-06T00:52:42.717Z,65.44
2019-03-06T00:55:12.100Z,65.83
2019-03-06T00:57:40.570Z,66.17
2019-03-06T01:00:24.058Z,66.74
2019-03-06T01:02:52.747Z,67.30
2019-03-06T01:05:21.537Z,66.96
2019-03-06T01:07:50.163Z,67.25
2019-03-06T01:10:18.838Z,67.05
2019-03-06T01:12:47.449Z,67.07
2019-03-06T01:15:17.264Z,67.71
2019-03-06T01:17:45.806Z,67.56
2019-03-06T01:20:17.351Z,68.10
2019-03-06T01:22:45.887Z,67.81
2019-03-06T01:25:18.888Z,68.24
2019-03-06T01:27:47.552Z,69.01
2019-03-06T01:30:27.005Z,69.35
2019-03-06T01:33:00.244Z,69.23
2019-03-06T01:35:33.415Z,69.01
2019-03-06T01:38:03.680Z,69.61
2019-03-06T01:40:33.912Z,69.39
2019-03-06T01:43:03.980Z,69.38
2019-03-06T01:45:32.707Z,69.57
2019-03-06T01:48:01.276Z,69.87
2019-03-06T01:50:30.197Z,70.04
2019-03-06T01:52:58.800Z,70.30
2019-03-06T01:55:27.383Z,70.43
2019-03-06T01:57:55.986Z,70.87
2019-03-06T02:00:24.644Z,70.71
2019-03-06T02:02:53.528Z,70.76
2019-03-06T02:05:22.290Z,70.66
2019-03-06T02:07:51.003Z,71.24
2019-03-06T02:10:19.600Z,70.89
2019-03-06T02:12:48.209Z,70.86
2019-03-06T02:15:18.227Z,71.01
2019-03-06T02:17:46.841Z,70.87
2019-03-06T02:20:17.201Z,70.75
2019-03-06T02:22:46.107Z,70.75
2019-03-06T02:25:15.530Z,70.79
2019-03-06T02:27:45.429Z,70.50
2019-03-06T02:30:16.901Z,70.76
2019-03-06T02:32:45.540Z,71.07
2019-03-06T02:35:14.110Z,71.25
2019-03-06T02:37:42.716Z,70.98
2019-03-06T02:40:11.826Z,71.16
2019-03-06T02:42:40.405Z,71.08
2019-03-06T02:45:14.813Z,71.16
2019-03-06T02:47:43.457Z,70.77
2019-03-06T02:50:16.903Z,70.90
2019-03-06T02:52:45.727Z,70.74
2019-03-06T02:55:16.199Z,70.50
2019-03-06T02:58:03.885Z,70.63
2019-03-06T03:00:34.111Z,70.44
2019-03-06T03:03:19.595Z,70.45
2019-03-06T03:05:49.812Z,70.37
2019-03-06T03:08:18.568Z,70.67
2019-03-06T03:10:47.582Z,70.32
2019-03-06T03:13:16.190Z,70.58
2019-03-06T03:15:44.781Z,70.74
2019-03-06T03:18:13.393Z,70.59
2019-03-06T03:20:41.954Z,70.99
2019-03-06T03:23:10.914Z,70.66
2019-03-06T03:25:39.553Z,70.57
2019-03-06T03:28:08.056Z,70.52
2019-03-06T03:30:36.544Z,70.42
2019-03-06T03:33:05.326Z,70.55
2019-03-06T03:35:33.895Z,71.06
2019-03-06T03:38:02.526Z,70.66
2019-03-06T03:40:31.153Z,70.82
2019-03-06T03:42:59.767Z,70.63
2019-03-06T03:45:28.331Z,70.65
2019-03-06T03:47:56.898Z,70.62
2019-03-06T03:50:25.786Z,70.32
2019-03-06T03:52:54.385Z,70.16
2019-03-06T03:55:22.976Z,70.16
2019-03-06T03:57:51.680Z,70.08
2019-03-06T04:00:23.428Z,70.24
2019-03-06T04:02:52.355Z,69.99
2019-03-06T04:05:20.918Z,70.64
2019-03-06T04:07:49.507Z,70.37
2019-03-06T04:10:18.227Z,70.38
2019-03-06T04:12:46.752Z,70.28
2019-03-06T04:15:16.543Z,70.25
2019-03-06T04:17:45.124Z,70.17
2019-03-06T04:20:14.719Z,70.21
2019-03-06T04:22:43.321Z,70.32
2019-03-06T04:25:12.334Z,70.02
2019-03-06T04:27:40.986Z,70.04
2019-03-06T04:30:14.331Z,69.72
2019-03-06T04:32:42.836Z,70.16
2019-03-06T04:35:11.450Z,70.00
2019-03-06T04:37:40.086Z,69.94
2019-03-06T04:40:11.126Z,69.81
2019-03-06T04:42:39.783Z,69.76
2019-03-06T04:45:10.750Z,70.00
2019-03-06T04:47:39.265Z,69.73
2019-03-06T04:50:11.868Z,69.75
2019-03-06T04:52:40.757Z,69.49
2019-03-06T04:55:10.544Z,69.56
2019-03-06T04:57:39.302Z,69.50
2019-03-06T05:00:15.795Z,69.53
2019-03-06T05:02:44.437Z,69.73
2019-03-06T05:05:15.986Z,69.85
2019-03-06T05:07:44.613Z,69.81
2019-03-06T05:10:14.490Z,69.76
2019-03-06T05:12:43.149Z,69.85
2019-03-06T05:15:16.495Z,69.84
2019-03-06T05:17:52.584Z,69.80
2019-03-06T05:20:21.225Z,69.58
2019-03-06T05:22:49.842Z,69.78
2019-03-06T05:25:18.387Z,69.61
2019-03-06T05:27:48.087Z,69.86
2019-03-06T05:30:18.362Z,69.83
2019-03-06T05:32:49.385Z,69.49
2019-03-06T05:35:38.197Z,69.61
2019-03-06T05:38:15.770Z,69.55
2019-03-06T05:40:44.354Z,69.75
2019-03-06T05:43:12.971Z,69.71
2019-03-06T05:45:41.556Z,69.72
2019-03-06T05:48:10.162Z,69.23
2019-03-06T05:50:38.790Z,69.30
2019-03-06T05:53:07.299Z,69.46
2019-03-06T05:55:35.915Z,69.47
2019-03-06T05:58:04.545Z,69.64
2019-03-06T06:00:33.156Z,69.40
2019-03-06T06:03:01.689Z,69.04
2019-03-06T06:05:30.168Z,69.04
2019-03-06T06:07:58.790Z,69.23
2019-03-06T06:10:27.329Z,68.76
2019-03-06T06:12:55.900Z,69.15
2019-03-06T06:15:24.495Z,69.02
2019-03-06T06:17:53.073Z,68.69
2019-03-06T06:20:21.721Z,68.60
2019-03-06T06:23:01.015Z,68.77
2019-03-06T06:25:31.188Z,68.75
2019-03-06T06:27:59.807Z,68.71
2019-03-06T06:30:28.446Z,68.62
2019-03-06T06:32:56.955Z,68.60
2019-03-06T06:35:26.453Z,68.55
2019-03-06T06:37:55.060Z,68.50
2019-03-06T06:40:23.645Z,68.06
2019-03-06T06:42:52.279Z,68.00
2019-03-06T06:45:21.094Z,68.05
2019-03-06T06:48:09.700Z,67.60
2019-03-06T06:51:01.899Z,67.68
2019-03-06T06:53:36.862Z,67.23
2019-03-06T06:56:23.056Z,66.95
2019-03-06T06:58:54.593Z,66.83
2019-03-06T07:01:30.345Z,66.66
2019-03-06T07:04:37.515Z,66.74
2019-03-06T07:07:13.520Z,66.69
2019-03-06T07:09:43.719Z,66.42
2019-03-06T07:12:13.942Z,66.31
2019-03-06T07:14:44.135Z,66.38
2019-03-06T07:17:23.154Z,66.50
2019-03-06T07:19:53.402Z,65.49
2019-03-06T07:22:23.599Z,65.96
2019-03-06T07:24:56.573Z,65.40
2019-03-06T07:27:26.810Z,65.96
2019-03-06T07:30:05.924Z,65.91
2019-03-06T07:32:48.241Z,65.52
2019-03-06T07:35:55.929Z,65.66
2019-03-06T07:38:24.830Z,65.67
2019-03-06T07:40:54.906Z,65.30
2019-03-06T07:43:25.321Z,65.30
2019-03-06T07:46:01.209Z,64.81
2019-03-06T07:48:40.703Z,64.79
2019-03-06T07:51:16.735Z,65.32
2019-03-06T07:53:57.483Z,67.37
2019-03-06T07:56:27.743Z,64.94
2019-03-06T07:59:00.313Z,63.75
2019-03-06T08:01:31.452Z,64.43
2019-03-06T08:04:11.509Z,64.16
2019-03-06T08:06:41.826Z,63.87
2019-03-06T08:09:16.006Z,63.56
2019-03-06T08:12:01.613Z,63.56
2019-03-06T08:14:40.662Z,63.42
2019-03-06T08:17:13.654Z,63.67
2019-03-06T08:20:00.365Z,62.54
2019-03-06T08:22:36.920Z,62.75
2019-03-06T08:25:11.974Z,61.97
2019-03-06T08:27:40.541Z,62.56
2019-03-06T08:30:11.196Z,63.15
2019-03-06T08:32:39.822Z,60.63
2019-03-06T08:35:10.764Z,59.99
2019-03-06T08:37:39.375Z,59.15
2019-03-06T08:40:10.524Z,59.59
2019-03-06T08:42:39.334Z,58.14
2019-03-06T08:45:12.276Z,58.06
2019-03-06T08:47:42.529Z,56.54
2019-03-06T08:50:15.619Z,57.64
2019-03-06T08:53:02.113Z,57.11
2019-03-06T08:55:35.320Z,56.38
2019-03-06T08:58:05.551Z,56.50
2019-03-06T09:00:52.224Z,55.25
2019-03-06T09:03:24.469Z,56.11
2019-03-06T09:05:57.382Z,55.10
2019-03-06T09:08:27.647Z,55.91
2019-03-06T09:11:04.044Z,56.06
2019-03-06T09:13:50.949Z,55.12
2019-03-06T09:16:24.197Z,53.80
2019-03-06T09:18:56.963Z,53.21
2019-03-06T09:21:27.202Z,54.02
2019-03-06T09:24:03.351Z,54.78
2019-03-06T09:26:36.462Z,54.54
2019-03-06T09:29:18.874Z,54.41
2019-03-06T09:31:52.147Z,54.11
2019-03-06T09:34:22.394Z,54.24
2019-03-06T09:37:08.497Z,54.18
2019-03-06T09:39:38.751Z,54.86
2019-03-06T09:42:09.272Z,54.25
2019-03-06T09:44:39.466Z,53.59
2019-03-06T09:47:21.999Z,54.08
2019-03-06T09:49:55.138Z,53.08
2019-03-06T09:52:37.426Z,53.22
2019-03-06T09:55:10.148Z,53.27
2019-03-06T09:57:42.863Z,53.58
2019-03-06T10:00:26.206Z,51.85
2019-03-06T10:03:01.844Z,51.64
2019-03-06T10:05:37.891Z,50.90
2019-03-06T10:08:10.870Z,51.32
2019-03-06T10:10:57.463Z,51.07
2019-03-06T10:13:42.131Z,51.14
2019-03-06T10:16:12.294Z,51.07
2019-03-06T10:18:42.525Z,50.66
2019-03-06T10:21:11.125Z,50.10
2019-03-06T10:23:39.820Z,50.84
2019-03-06T10:26:08.500Z,50.62
2019-03-06T10:28:37.154Z,49.40
2019-03-06T10:31:06.093Z,49.73
2019-03-06T10:33:34.709Z,50.46
2019-03-06T10:36:03.698Z,49.40
2019-03-06T10:38:32.278Z,49.25
2019-03-06T10:41:00.907Z,49.40
2019-03-06T10:43:29.417Z,49.21
2019-03-06T10:45:58.309Z,49.43
2019-03-06T10:48:26.932Z,50.67
2019-03-06T10:50:55.558Z,49.62
2019-03-06T10:53:24.234Z,48.93
2019-03-06T10:55:52.984Z,47.38
2019-03-06T10:58:22.074Z,46.83
2019-03-06T11:00:54.686Z,45.77
2019-03-06T11:03:25.617Z,46.15
2019-03-06T11:05:54.250Z,46.15
2019-03-06T11:08:25.026Z,46.08
2019-03-06T11:10:54.125Z,45.74
2019-03-06T11:13:22.769Z,46.39
2019-03-06T11:18:25.214Z,45.05
2019-03-06T11:18:56.072Z,45.47
2019-03-06T11:20:53.951Z,44.42
2019-03-06T11:23:22.662Z,44.69
2019-03-06T11:25:52.252Z,45.01
2019-03-06T11:28:20.926Z,46.01
2019-03-06T11:30:58.614Z,46.13
2019-03-06T11:33:27.449Z,46.39
2019-03-06T11:36:00.993Z,45.98
2019-03-06T11:38:29.801Z,45.91
2019-03-06T11:40:59.844Z,44.44
2019-03-06T11:43:28.969Z,44.44
2019-03-06T11:45:57.725Z,44.06
2019-03-06T11:48:26.708Z,45.30
2019-03-06T11:50:55.428Z,44.74
2019-03-06T11:53:23.992Z,44.18
2019-03-06T11:55:52.542Z,44.61
2019-03-06T11:58:21.282Z,44.00
2019-03-06T12:00:50.158Z,44.03
2019-03-06T12:03:21.534Z,43.95
2019-03-06T12:05:50.802Z,43.85
2019-03-06T12:08:20.541Z,44.09
2019-03-06T12:10:50.549Z,44.87
2019-03-06T12:13:19.507Z,45.14
2019-03-06T12:15:50.385Z,44.82
2019-03-06T12:18:21.790Z,44.63
2019-03-06T12:20:50.431Z,44.26
2019-03-06T12:23:19.043Z,44.64
2019-03-06T12:25:47.945Z,44.14
2019-03-06T12:28:18.153Z,45.04
2019-03-06T12:30:46.982Z,44.74
2019-03-06T12:33:21.506Z,44.30
2019-03-06T12:35:51.734Z,44.95
2019-03-06T12:38:20.537Z,45.40
2019-03-06T12:40:49.405Z,45.08
2019-03-06T12:43:18.033Z,45.10
2019-03-06T12:46:06.566Z,44.53
2019-03-06T12:48:35.303Z,44.41
2019-03-06T12:51:04.452Z,44.85
2019-03-06T12:53:33.135Z,45.15
2019-03-06T12:56:01.953Z,45.53
2019-03-06T12:58:30.653Z,45.32
2019-03-06T13:00:59.174Z,45.41
2019-03-06T13:03:27.774Z,45.28
2019-03-06T13:05:56.457Z,46.47
2019-03-06T13:08:25.045Z,46.53
2019-03-06T13:10:53.778Z,46.25
2019-03-06T13:13:22.466Z,46.28
2019-03-06T13:15:51.111Z,46.14
2019-03-06T13:18:19.689Z,46.75
2019-03-06T13:20:48.331Z,46.81
2019-03-06T13:23:16.926Z,46.98
2019-03-06T13:25:45.504Z,47.05
2019-03-06T13:28:14.066Z,46.71
2019-03-06T13:30:42.723Z,47.00
2019-03-06T13:33:28.932Z,46.65
2019-03-06T13:35:57.548Z,46.99
2019-03-06T13:38:26.234Z,46.63
2019-03-06T13:40:54.844Z,46.86
2019-03-06T13:43:24.012Z,46.65
2019-03-06T13:45:52.632Z,47.12
2019-03-06T13:48:21.370Z,46.87
2019-03-06T13:50:49.971Z,47.43
2019-03-06T13:53:20.608Z,46.75
2019-03-06T13:55:49.542Z,47.42
2019-03-06T13:58:18.725Z,47.48
2019-03-06T14:00:47.398Z,47.88
2019-03-06T14:03:16.254Z,47.94
2019-03-06T14:05:44.981Z,47.87
2019-03-06T14:08:13.568Z,47.29
2019-03-06T14:10:42.196Z,46.65
2019-03-06T14:13:10.753Z,47.15
2019-03-06T14:15:39.406Z,47.30
2019-03-06T14:18:09.576Z,47.43
2019-03-06T14:20:38.182Z,49.12
2019-03-06T14:23:08.139Z,49.12
2019-03-06T14:25:39.643Z,49.46
2019-03-06T14:28:08.350Z,49.85
2019-03-06T14:30:38.854Z,50.56
2019-03-06T14:33:07.556Z,50.59
2019-03-06T14:35:36.253Z,51.33
2019-03-06T14:38:06.928Z,51.47
2019-03-06T14:40:36.179Z,51.88
2019-03-06T14:43:07.691Z,52.71
2019-03-06T14:45:36.556Z,53.24
2019-03-06T14:48:05.902Z,54.47
2019-03-06T14:50:34.607Z,55.08
2019-03-06T14:53:04.984Z,55.67
2019-03-06T14:55:34.171Z,56.48
2019-03-06T14:58:04.857Z,56.77
2019-03-06T15:00:37.677Z,57.48
2019-03-06T15:03:06.292Z,58.42
2019-03-06T15:05:35.221Z,58.16
2019-03-06T15:08:05.443Z,58.22
2019-03-06T15:10:42.489Z,58.52
2019-03-06T15:13:04.475Z,58.72
2019-03-06T15:15:33.210Z,59.25
2019-03-06T15:18:10.347Z,59.27
2019-03-06T15:20:32.199Z,59.07
2019-03-06T15:23:00.831Z,59.79
2019-03-06T15:25:30.572Z,59.82
2019-03-06T15:27:59.312Z,59.77
2019-03-06T15:30:27.947Z,59.36
2019-03-06T15:32:56.750Z,59.40
2019-03-06T15:35:25.532Z,59.40
2019-03-06T15:37:54.254Z,60.19
2019-03-06T15:40:28.341Z,59.60
2019-03-06T15:42:57.310Z,59.58
2019-03-06T15:45:35.418Z,60.29
2019-03-06T15:48:04.719Z,59.65
2019-03-06T15:50:33.501Z,59.48
2019-03-06T15:53:02.182Z,58.61
2019-03-06T15:55:31.449Z,58.89
2019-03-06T15:58:00.282Z,58.80
2019-03-06T16:00:45.878Z,58.66
2019-03-06T16:03:13.216Z,58.78
2019-03-06T16:05:42.329Z,58.20
2019-03-06T16:08:12.545Z,57.87
2019-03-06T16:10:41.629Z,58.01
2019-03-06T16:13:10.230Z,57.93
2019-03-06T16:15:38.841Z,58.27
2019-03-06T16:18:09.234Z,58.14
2019-03-06T16:20:38.159Z,58.60
2019-03-06T16:23:06.823Z,58.46
2019-03-06T16:25:37.999Z,58.71
2019-03-06T16:28:06.072Z,58.73
2019-03-06T16:30:34.721Z,57.86
2019-03-06T16:33:03.327Z,57.95
2019-03-06T16:35:31.956Z,58.79
2019-03-06T16:38:00.526Z,59.10
2019-03-06T16:40:30.580Z,59.98
2019-03-06T16:42:59.282Z,60.28
2019-03-06T16:45:28.989Z,60.44
2019-03-06T16:47:57.934Z,60.18
2019-03-06T16:50:26.767Z,60.53
2019-03-06T16:52:56.958Z,60.51
2019-03-06T16:55:27.628Z,61.35
2019-03-06T16:57:57.243Z,60.96
2019-03-06T17:00:28.269Z,60.92
2019-03-06T17:02:58.258Z,60.78
2019-03-06T17:05:27.328Z,60.94
2019-03-06T17:07:57.486Z,61.27
2019-03-06T17:10:33.804Z,61.25
2019-03-06T17:13:02.726Z,61.08
2019-03-06T17:15:32.197Z,61.26
2019-03-06T17:18:01.271Z,61.68
2019-03-06T17:20:37.447Z,62.09
2019-03-06T17:23:06.588Z,62.65
2019-03-06T17:25:35.453Z,62.75
2019-03-06T17:28:04.273Z,62.95
2019-03-06T17:30:34.087Z,63.21
2019-03-06T17:33:05.073Z,64.61
2019-03-06T17:35:34.883Z,64.80
2019-03-06T17:38:04.796Z,66.09
2019-03-06T17:40:33.578Z,65.81
2019-03-06T17:43:02.413Z,65.88
2019-03-06T17:45:31.290Z,65.88
2019-03-06T17:48:00.277Z,65.98
2019-03-06T17:50:29.061Z,66.11
2019-03-06T17:52:57.883Z,65.97
2019-03-06T17:55:27.493Z,66.02
2019-03-06T17:57:56.130Z,66.33
2019-03-06T18:00:30.379Z,66.82
2019-03-06T18:03:00.142Z,66.34
2019-03-06T18:05:28.771Z,67.08
2019-03-06T18:07:57.412Z,66.49
2019-03-06T18:10:26.477Z,66.63
2019-03-06T18:12:55.167Z,66.90
2019-03-06T18:15:23.845Z,67.21
2019-03-06T18:17:52.471Z,66.60
2019-03-06T18:20:21.392Z,67.19
2019-03-06T18:22:49.969Z,67.77
2019-03-06T18:25:20.087Z,66.87
2019-03-06T18:27:48.695Z,67.31
2019-03-06T18:30:19.007Z,67.49
2019-03-06T18:32:47.708Z,67.02
2019-03-06T18:35:21.286Z,67.39
2019-03-06T18:37:50.040Z,67.05
2019-03-06T18:40:20.973Z,67.37
2019-03-06T18:42:49.663Z,67.56
2019-03-06T18:45:21.621Z,67.40
2019-03-06T18:47:50.308Z,67.14
2019-03-06T18:50:22.549Z,67.32
2019-03-06T18:52:51.512Z,67.43
2019-03-06T18:55:21.033Z,67.26
2019-03-06T18:57:49.693Z,67.32
2019-03-06T19:00:23.879Z,67.28
2019-03-06T19:02:52.838Z,67.12
2019-03-06T19:05:21.436Z,67.33
2019-03-06T19:07:56.671Z,67.58
2019-03-06T19:10:25.934Z,67.64
2019-03-06T19:12:54.692Z,67.28
2019-03-06T19:15:28.102Z,67.41
2019-03-06T19:17:56.677Z,67.37
2019-03-06T19:20:25.522Z,67.53
2019-03-06T19:22:54.493Z,66.75
2019-03-06T19:25:23.179Z,66.75
2019-03-06T19:27:51.891Z,67.39
2019-03-06T19:30:24.247Z,66.98
2019-03-06T19:32:52.954Z,67.00
2019-03-06T19:35:25.727Z,67.00
2019-03-06T19:37:54.288Z,66.68
2019-03-06T19:40:22.991Z,66.75
2019-03-06T19:42:51.613Z,66.36
2019-03-06T19:45:22.230Z,66.76
2019-03-06T19:47:50.982Z,66.40
2019-03-06T19:50:21.614Z,66.76
2019-03-06T19:52:50.222Z,66.43
2019-03-06T19:55:19.733Z,66.84
2019-03-06T19:58:02.314Z,66.54
2019-03-06T20:00:32.304Z,66.55
2019-03-06T20:03:01.714Z,66.08
2019-03-06T20:05:41.263Z,66.16
2019-03-06T20:08:12.418Z,66.28
2019-03-06T20:10:41.534Z,66.02
2019-03-06T20:13:11.124Z,66.28
2019-03-06T20:15:40.604Z,66.35
2019-03-06T20:18:09.748Z,66.62
2019-03-06T20:20:38.631Z,67.29
2019-03-06T20:23:07.656Z,67.29
2019-03-06T20:25:37.228Z,67.27
2019-03-06T20:28:06.270Z,67.11
2019-03-06T20:30:34.902Z,67.28
2019-03-06T20:33:03.723Z,67.48
2019-03-06T20:35:32.373Z,67.71
2019-03-06T20:38:01.106Z,67.83
2019-03-06T20:40:29.728Z,68.25
2019-03-06T20:42:59.233Z,68.41
2019-03-06T20:45:27.863Z,68.27
2019-03-06T20:47:56.526Z,68.53
2019-03-06T20:50:25.057Z,68.64
2019-03-06T20:52:54.019Z,68.64
2019-03-06T20:55:22.596Z,69.00
2019-03-06T20:57:51.323Z,68.88
2019-03-06T21:00:22.128Z,68.79
2019-03-06T21:02:50.911Z,69.02
2019-03-06T21:05:19.525Z,69.07
2019-03-06T21:07:48.220Z,68.81
2019-03-06T21:10:20.080Z,69.54
2019-03-06T21:12:48.716Z,70.16
2019-03-06T21:15:23.757Z,70.55
2019-03-06T21:17:52.299Z,70.56
2019-03-06T21:20:22.847Z,70.50
2019-03-06T21:22:51.429Z,70.77
2019-03-06T21:25:20.926Z,70.75
2019-03-06T21:27:49.789Z,70.66
2019-03-06T21:30:36.482Z,70.59
2019-03-06T21:33:05.043Z,70.83
2019-03-06T21:35:33.614Z,70.94
2019-03-06T21:38:02.203Z,70.62
2019-03-06T21:40:31.374Z,70.71
2019-03-06T21:43:00.438Z,70.64
2019-03-06T21:45:30.159Z,69.97
2019-03-06T21:47:58.735Z,70.11
2019-03-06T21:50:28.750Z,69.98
2019-03-06T21:52:57.375Z,70.00
2019-03-06T21:57:48.084Z,70.12
2019-03-06T22:00:24.591Z,69.24
2019-03-06T22:02:53.102Z,69.36
2019-03-06T22:05:21.719Z,69.55
2019-03-06T22:07:51.299Z,69.07
2019-03-06T22:10:20.184Z,68.82
2019-03-06T22:12:48.904Z,69.16
2019-03-06T22:15:20.395Z,69.29
2019-03-06T22:17:49.065Z,69.53
2019-03-06T22:20:18.253Z,69.48
2019-03-06T22:22:46.879Z,69.61
2019-03-06T22:25:19.050Z,69.34
2019-03-06T22:27:47.667Z,69.62
2019-03-06T22:30:22.580Z,69.18
2019-03-06T22:32:51.285Z,69.52
2019-03-06T22:35:20.132Z,69.71
2019-03-06T22:37:48.911Z,69.82
2019-03-06T22:40:19.101Z,69.85
2019-03-06T22:42:47.672Z,70.22
2019-03-06T22:45:18.319Z,70.07
2019-03-06T22:47:46.888Z,70.35
2019-03-06T22:50:16.519Z,70.64
2019-03-06T22:52:45.101Z,70.67
2019-03-06T22:55:15.917Z,70.48
2019-03-06T22:57:44.559Z,70.37
2019-03-06T23:00:32.501Z,70.82
2019-03-06T23:03:01.206Z,70.62
2019-03-06T23:05:34.875Z,70.03
2019-03-06T23:08:03.460Z,70.81
2019-03-06T23:10:32.086Z,70.37
2019-03-06T23:13:01.236Z,70.33
2019-03-06T23:15:29.805Z,70.11
2019-03-06T23:17:58.742Z,70.58
2019-03-06T23:20:27.401Z,70.38
2019-03-06T23:22:56.061Z,69.97
2019-03-06T23:25:24.682Z,69.80
2019-03-06T23:27:53.190Z,70.11
2019-03-06T23:30:21.835Z,69.61
2019-03-06T23:32:50.819Z,69.93
2019-03-06T23:35:19.385Z,70.25
2019-03-06T23:37:48.157Z,69.93
2019-03-06T23:40:16.744Z,69.78
2019-03-06T23:42:45.295Z,69.55
2019-03-06T23:45:14.429Z,69.33
2019-03-06T23:47:43.184Z,69.49
2019-03-06T23:50:12.690Z,69.48
2019-03-06T23:52:58.087Z,69.47
2019-03-06T23:55:28.413Z,69.43
2019-03-06T23:57:57.289Z,69.70
